createdAt,value
2023-05-08T00:01:31.410Z,1.67
2023-05-08T00:03:59.030Z,1.80
2023-05-08T00:06:27.755Z,1.88
2023-05-08T00:08:55.760Z,1.67
2023-05-08T00:11:23.062Z,1.88
2023-05-08T00:13:50.166Z,1.85
2023-05-08T00:16:17.511Z,1.88
2023-05-08T00:18:44.767Z,2.00
2023-05-08T00:21:11.856Z,1.52
2023-05-08T00:23:38.972Z,2.03
2023-05-08T00:26:06.289Z,1.90
2023-05-08T00:28:33.481Z,1.35
2023-05-08T00:31:02.229Z,1.77
2023-05-08T00:33:29.436Z,1.95
2023-05-08T00:36:00.798Z,1.77
2023-05-08T00:38:27.973Z,1.80
2023-05-08T00:40:55.158Z,1.45
2023-05-08T00:43:25.838Z,1.83
2023-05-08T00:45:54.752Z,1.42
2023-05-08T00:48:23.562Z,1.42
2023-05-08T00:53:18.289Z,1.75
2023-05-08T00:55:45.718Z,2.25
2023-05-08T00:58:14.549Z,2.00
2023-05-08T01:03:09.953Z,1.60
2023-05-08T01:05:37.299Z,1.75
2023-05-08T01:08:04.435Z,1.30
2023-05-08T01:10:47.871Z,1.60
2023-05-08T01:13:29.777Z,1.50
2023-05-08T01:16:17.578Z,1.40
2023-05-08T01:18:51.577Z,1.55
2023-05-08T01:21:24.831Z,1.40
2023-05-08T01:24:05.568Z,1.33
2023-05-08T01:26:32.662Z,1.38
2023-05-08T01:29:25.541Z,1.85
2023-05-08T01:32:06.051Z,1.65
2023-05-08T01:34:34.350Z,1.60
2023-05-08T01:37:11.005Z,1.60
2023-05-08T01:39:45.868Z,1.60
2023-05-08T01:42:29.842Z,1.45
2023-05-08T01:45:05.791Z,1.45
2023-05-08T01:47:34.121Z,1.40
2023-05-08T01:50:27.750Z,1.50
2023-05-08T01:52:59.578Z,1.40
2023-05-08T01:55:28.048Z,1.40
2023-05-08T01:57:57.307Z,1.73
2023-05-08T02:00:24.864Z,1.60
2023-05-08T02:02:52.689Z,1.60
2023-05-08T02:05:21.786Z,2.20
2023-05-08T02:07:50.043Z,1.30
2023-05-08T02:10:18.047Z,1.25
2023-05-08T02:12:45.408Z,1.40
2023-05-08T02:15:14.519Z,1.20
2023-05-08T02:17:42.265Z,1.58
2023-05-08T02:20:14.891Z,1.48
2023-05-08T02:22:44.125Z,1.45
2023-05-08T02:25:14.503Z,1.23
2023-05-08T02:27:45.565Z,1.48
2023-05-08T02:30:16.788Z,1.50
2023-05-08T02:32:48.566Z,1.55
2023-05-08T02:35:17.047Z,1.65
2023-05-08T02:37:45.863Z,1.40
2023-05-08T02:42:40.735Z,1.40
2023-05-08T02:45:08.499Z,1.15
2023-05-08T02:47:52.061Z,1.50
2023-05-08T02:50:21.355Z,1.45
2023-05-08T02:52:50.316Z,1.50
2023-05-08T02:55:30.889Z,1.52
2023-05-08T02:58:04.786Z,1.85
2023-05-08T03:00:56.829Z,1.20
2023-05-08T03:03:26.847Z,1.27
2023-05-08T03:05:55.668Z,1.30
2023-05-08T03:08:31.192Z,1.13
2023-05-08T03:10:59.862Z,1.30
2023-05-08T03:13:30.986Z,1.40
2023-05-08T03:16:00.997Z,1.30
2023-05-08T03:18:32.905Z,1.30
2023-05-08T03:21:00.733Z,1.40
2023-05-08T03:23:29.923Z,1.35
2023-05-08T03:25:58.914Z,1.40
2023-05-08T03:28:26.947Z,1.33
2023-05-08T03:30:54.663Z,1.40
2023-05-08T03:33:22.544Z,1.38
2023-05-08T03:35:50.610Z,1.42
2023-05-08T03:38:18.020Z,1.50
2023-05-08T03:40:45.671Z,1.30
2023-05-08T03:43:12.808Z,1.80
2023-05-08T03:45:41.135Z,1.70
2023-05-08T03:48:10.122Z,2.50
2023-05-08T03:50:38.534Z,2.08
2023-05-08T03:53:06.138Z,2.20
2023-05-08T03:55:33.414Z,1.70
2023-05-08T03:58:04.286Z,1.55
2023-05-08T04:00:34.618Z,1.73
2023-05-08T04:03:14.124Z,1.52
2023-05-08T04:05:46.187Z,1.60
2023-05-08T04:08:17.775Z,2.13
2023-05-08T04:10:51.630Z,1.42
2023-05-08T04:13:26.412Z,1.77
2023-05-08T04:15:58.650Z,1.60
2023-05-08T04:18:29.375Z,1.73
2023-05-08T04:20:57.408Z,1.70
2023-05-08T04:23:27.224Z,2.58
2023-05-08T04:25:54.628Z,2.13
2023-05-08T04:28:22.461Z,2.20
2023-05-08T04:30:50.316Z,2.13
2023-05-08T04:33:18.830Z,2.35
2023-05-08T04:35:46.339Z,2.35
2023-05-08T04:38:13.576Z,1.95
2023-05-08T04:40:40.789Z,2.28
2023-05-08T04:43:08.023Z,2.47
2023-05-08T04:45:35.394Z,2.00
2023-05-08T04:48:02.679Z,2.00
2023-05-08T04:50:29.872Z,2.13
2023-05-08T04:52:57.311Z,2.00
2023-05-08T04:55:24.463Z,2.05
2023-05-08T04:57:51.599Z,1.90
2023-05-08T05:00:19.213Z,2.03
2023-05-08T05:02:46.442Z,2.00
2023-05-08T05:05:13.995Z,1.75
2023-05-08T05:07:41.642Z,2.30
2023-05-08T05:10:08.955Z,1.95
2023-05-08T05:12:36.173Z,2.00
2023-05-08T05:15:03.365Z,2.17
2023-05-08T05:17:31.568Z,2.05
2023-05-08T05:19:59.346Z,2.00
2023-05-08T05:22:27.906Z,2.03
2023-05-08T05:24:55.067Z,2.03
2023-05-08T05:27:22.185Z,1.85
2023-05-08T05:29:49.328Z,2.80
2023-05-08T05:32:16.501Z,2.00
2023-05-08T05:34:43.602Z,2.30
2023-05-08T05:37:10.722Z,2.13
2023-05-08T05:39:37.906Z,1.83
2023-05-08T05:42:05.063Z,1.60
2023-05-08T05:44:32.232Z,2.00
2023-05-08T05:46:59.464Z,1.80
2023-05-08T05:49:26.590Z,1.77
2023-05-08T05:51:53.725Z,1.70
2023-05-08T05:54:20.812Z,1.83
2023-05-08T05:56:48.352Z,2.00
2023-05-08T05:59:15.657Z,1.90
2023-05-08T06:01:42.845Z,1.63
2023-05-08T06:04:10.124Z,2.10
2023-05-08T06:06:37.249Z,2.22
2023-05-08T06:09:04.539Z,2.00
2023-05-08T06:11:31.693Z,1.80
2023-05-08T06:13:58.871Z,1.60
2023-05-08T06:16:26.027Z,1.80
2023-05-08T06:18:53.129Z,1.77
2023-05-08T06:21:20.318Z,2.03
2023-05-08T06:23:47.429Z,2.00
2023-05-08T06:26:14.569Z,1.85
2023-05-08T06:28:41.674Z,1.65
2023-05-08T06:31:08.911Z,1.67
2023-05-08T06:33:36.178Z,1.85
2023-05-08T06:36:04.795Z,1.90
2023-05-08T06:38:31.938Z,1.85
2023-05-08T06:40:59.075Z,1.80
2023-05-08T06:43:26.265Z,1.83
2023-05-08T06:45:53.465Z,1.83
2023-05-08T06:48:20.837Z,1.88
2023-05-08T06:50:48.252Z,1.73
2023-05-08T06:53:15.412Z,1.85
2023-05-08T06:55:45.601Z,2.10
2023-05-08T06:58:13.002Z,1.90
2023-05-08T07:00:40.155Z,1.63
2023-05-08T07:03:07.433Z,1.67
2023-05-08T07:05:34.742Z,2.00
2023-05-08T07:08:01.849Z,2.03
2023-05-08T07:10:29.075Z,1.70
2023-05-08T07:12:56.407Z,1.95
2023-05-08T07:15:26.381Z,1.67
2023-05-08T07:17:54.262Z,1.92
2023-05-08T07:20:21.887Z,1.63
2023-05-08T07:22:49.158Z,1.92
2023-05-08T07:25:16.920Z,2.13
2023-05-08T07:27:44.100Z,1.70
2023-05-08T07:30:11.569Z,1.85
2023-05-08T07:32:39.384Z,1.80
2023-05-08T07:35:10.864Z,1.85
2023-05-08T07:37:38.636Z,1.75
2023-05-08T07:40:06.284Z,2.00
2023-05-08T07:42:38.748Z,1.80
2023-05-08T07:45:06.040Z,2.03
2023-05-08T07:47:33.234Z,1.90
2023-05-08T07:50:00.366Z,1.80
2023-05-08T07:52:27.489Z,1.92
2023-05-08T07:54:54.645Z,2.20
2023-05-08T07:57:22.102Z,2.13
2023-05-08T07:59:49.211Z,2.20
2023-05-08T08:02:16.564Z,2.30
2023-05-08T08:04:43.730Z,2.00
2023-05-08T08:07:10.983Z,2.35
2023-05-08T08:09:38.240Z,2.28
2023-05-08T08:12:05.780Z,2.65
2023-05-08T08:14:33.071Z,1.88
2023-05-08T08:17:00.248Z,2.30
2023-05-08T08:19:27.435Z,2.17
2023-05-08T08:21:54.682Z,1.92
2023-05-08T08:24:21.826Z,2.20
2023-05-08T08:26:48.933Z,2.08
2023-05-08T08:29:16.110Z,1.83
2023-05-08T08:31:43.682Z,2.05
2023-05-08T08:34:10.814Z,2.10
2023-05-08T08:36:38.013Z,1.95
2023-05-08T08:39:05.120Z,2.05
2023-05-08T08:41:32.286Z,2.15
2023-05-08T08:43:59.534Z,2.17
2023-05-08T08:46:27.419Z,2.35
2023-05-08T08:48:58.680Z,2.00
2023-05-08T08:51:26.183Z,2.28
2023-05-08T08:53:59.743Z,2.22
2023-05-08T08:56:27.668Z,2.10
2023-05-08T08:58:57.199Z,2.08
2023-05-08T09:01:25.342Z,2.05
2023-05-08T09:03:52.700Z,2.15
2023-05-08T09:06:20.132Z,2.10
2023-05-08T09:08:48.059Z,2.10
2023-05-08T09:11:15.150Z,2.47
2023-05-08T09:13:42.309Z,2.13
2023-05-08T09:16:09.787Z,2.03
2023-05-08T09:18:37.064Z,2.20
2023-05-08T09:21:06.508Z,2.63
2023-05-08T09:23:33.707Z,2.40
2023-05-08T09:26:00.792Z,2.40
2023-05-08T09:28:27.930Z,2.28
2023-05-08T09:30:58.947Z,1.95
2023-05-08T09:33:27.490Z,2.35
2023-05-08T09:35:55.679Z,2.13
2023-05-08T09:38:36.003Z,2.20
2023-05-08T09:41:09.233Z,2.10
2023-05-08T09:43:36.549Z,2.20
2023-05-08T09:46:34.050Z,2.58
2023-05-08T09:49:02.759Z,2.10
2023-05-08T09:51:31.219Z,2.20
2023-05-08T09:53:59.467Z,2.38
2023-05-08T09:56:36.807Z,2.20
2023-05-08T09:59:23.214Z,2.85
2023-05-08T10:01:50.968Z,2.42
2023-05-08T10:04:18.121Z,2.88
2023-05-08T10:06:56.637Z,2.13
2023-05-08T10:09:23.784Z,2.83
2023-05-08T10:11:52.259Z,2.72
2023-05-08T10:14:20.263Z,2.42
2023-05-08T10:16:52.793Z,2.55
2023-05-08T10:19:21.024Z,2.35
2023-05-08T10:21:53.396Z,2.05
2023-05-08T10:24:21.724Z,2.60
2023-05-08T10:27:10.762Z,2.55
2023-05-08T10:29:54.381Z,2.42
2023-05-08T10:32:22.215Z,3.00
2023-05-08T10:34:59.468Z,2.58
2023-05-08T10:37:29.783Z,2.28
2023-05-08T10:39:58.835Z,2.40
2023-05-08T10:42:26.896Z,2.80
2023-05-08T10:44:54.657Z,2.65
2023-05-08T10:47:41.965Z,2.63
2023-05-08T10:52:38.825Z,2.33
2023-05-08T10:55:21.106Z,2.45
2023-05-08T10:58:11.475Z,2.63
2023-05-08T11:00:56.867Z,2.42
2023-05-08T11:03:32.284Z,2.60
2023-05-08T11:06:01.564Z,2.47
2023-05-08T11:08:29.509Z,2.80
2023-05-08T11:11:02.337Z,2.67
2023-05-08T11:13:34.408Z,2.63
2023-05-08T11:16:01.624Z,2.78
2023-05-08T11:18:41.798Z,2.63
2023-05-08T11:21:16.910Z,2.50
2023-05-08T11:23:44.057Z,2.58
2023-05-08T11:26:14.920Z,3.00
2023-05-08T11:28:59.355Z,2.60
2023-05-08T11:31:46.400Z,2.95
2023-05-08T11:34:32.164Z,2.80
2023-05-08T11:37:02.862Z,2.58
2023-05-08T11:39:29.990Z,2.80
2023-05-08T11:42:17.085Z,3.03
2023-05-08T11:44:44.247Z,2.50
2023-05-08T11:47:16.157Z,2.85
2023-05-08T11:49:43.809Z,2.67
2023-05-08T11:52:11.180Z,2.80
2023-05-08T11:54:38.342Z,2.65
2023-05-08T11:57:05.590Z,2.70
2023-05-08T11:59:36.663Z,2.70
2023-05-08T12:02:09.154Z,2.45
2023-05-08T12:04:47.167Z,2.92
2023-05-08T12:07:16.296Z,2.60
2023-05-08T12:12:10.537Z,2.90
2023-05-08T12:14:38.107Z,2.50
2023-05-08T12:17:05.305Z,2.95
2023-05-08T12:19:32.438Z,3.00
2023-05-08T12:21:59.662Z,3.00
2023-05-08T12:24:27.040Z,2.38
2023-05-08T12:26:57.829Z,2.90
2023-05-08T12:29:27.295Z,3.28
2023-05-08T12:31:54.494Z,2.63
2023-05-08T12:34:21.796Z,2.65
2023-05-08T12:36:49.011Z,2.90
2023-05-08T12:39:17.499Z,2.33
2023-05-08T12:41:47.847Z,2.85
2023-05-08T12:44:28.246Z,2.65
2023-05-08T12:46:59.971Z,2.72
2023-05-08T12:49:31.049Z,2.92
2023-05-08T12:52:13.560Z,2.55
2023-05-08T12:54:41.594Z,2.88
2023-05-08T12:57:15.461Z,3.05
2023-05-08T12:59:42.999Z,2.95
2023-05-08T13:02:17.786Z,2.70
2023-05-08T13:07:12.247Z,2.53
2023-05-08T13:09:39.646Z,3.05
2023-05-08T13:12:07.024Z,3.28
2023-05-08T13:14:34.230Z,2.75
2023-05-08T13:17:01.876Z,2.72
2023-05-08T13:19:29.174Z,2.63
2023-05-08T13:21:56.323Z,2.75
2023-05-08T13:24:23.681Z,2.50
2023-05-08T13:26:50.890Z,2.97
2023-05-08T13:29:18.023Z,2.88
2023-05-08T13:31:45.250Z,3.15
2023-05-08T13:34:12.409Z,2.70
2023-05-08T13:36:39.534Z,2.95
2023-05-08T13:39:06.704Z,2.97
2023-05-08T13:41:34.001Z,3.72
2023-05-08T13:44:01.607Z,3.63
2023-05-08T13:46:28.837Z,3.50
2023-05-08T13:48:56.159Z,3.08
2023-05-08T13:51:23.258Z,3.03
2023-05-08T13:53:50.554Z,2.85
2023-05-08T13:56:17.744Z,3.25
2023-05-08T13:58:45.019Z,3.47
2023-05-08T14:01:25.529Z,3.20
2023-05-08T14:03:55.852Z,3.53
2023-05-08T14:06:23.148Z,3.15
2023-05-08T14:08:52.725Z,3.75
2023-05-08T14:11:22.376Z,3.35
2023-05-08T14:13:49.510Z,3.50
2023-05-08T14:16:16.720Z,3.50
2023-05-08T14:18:44.042Z,3.38
2023-05-08T14:21:11.273Z,3.63
2023-05-08T14:23:39.015Z,2.92
2023-05-08T14:26:06.148Z,3.50
2023-05-08T14:28:34.233Z,3.70
2023-05-08T14:31:01.394Z,3.33
2023-05-08T14:33:28.580Z,3.35
2023-05-08T14:35:55.670Z,3.60
2023-05-08T14:38:22.899Z,3.50
2023-05-08T14:40:51.136Z,3.17
2023-05-08T14:43:18.575Z,3.80
2023-05-08T14:45:45.690Z,3.05
2023-05-08T14:48:12.958Z,3.72
2023-05-08T14:50:40.240Z,3.83
2023-05-08T14:53:07.621Z,3.20
2023-05-08T14:55:35.102Z,3.60
2023-05-08T14:58:02.526Z,3.78
2023-05-08T15:00:29.644Z,4.13
2023-05-08T15:02:56.975Z,3.67
2023-05-08T15:05:24.504Z,4.10
2023-05-08T15:07:51.934Z,3.78
2023-05-08T15:10:19.150Z,4.13
2023-05-08T15:12:46.347Z,3.90
2023-05-08T15:15:13.877Z,4.72
2023-05-08T15:17:41.645Z,4.30
2023-05-08T15:20:09.472Z,4.45
2023-05-08T15:22:37.127Z,4.53
2023-05-08T15:25:04.585Z,4.65
2023-05-08T15:27:32.133Z,4.53
2023-05-08T15:29:59.480Z,4.57
2023-05-08T15:32:26.635Z,5.18
2023-05-08T15:34:53.803Z,5.05
2023-05-08T15:37:20.937Z,4.70
2023-05-08T15:39:49.931Z,5.57
2023-05-08T15:42:17.132Z,5.00
2023-05-08T15:44:54.598Z,5.18
2023-05-08T15:47:23.383Z,5.72
2023-05-08T15:49:51.204Z,5.35
2023-05-08T15:52:19.685Z,5.32
2023-05-08T15:54:47.368Z,5.47
2023-05-08T15:57:14.674Z,5.05
2023-05-08T15:59:41.855Z,5.63
2023-05-08T16:02:09.344Z,5.47
2023-05-08T16:04:36.914Z,5.15
2023-05-08T16:07:04.390Z,5.35
2023-05-08T16:09:31.552Z,5.07
2023-05-08T16:11:58.688Z,5.18
2023-05-08T16:14:25.847Z,4.85
2023-05-08T16:16:53.308Z,5.40
2023-05-08T16:19:20.516Z,5.90
2023-05-08T16:21:47.856Z,5.65
2023-05-08T16:24:15.273Z,5.70
2023-05-08T16:26:42.458Z,5.80
2023-05-08T16:29:09.565Z,6.28
2023-05-08T16:31:36.799Z,5.50
2023-05-08T16:34:04.011Z,5.55
2023-05-08T16:36:31.208Z,5.72
2023-05-08T16:38:58.337Z,5.80
2023-05-08T16:41:26.796Z,5.90
2023-05-08T16:43:53.927Z,5.78
2023-05-08T16:46:29.590Z,5.68
2023-05-08T16:48:57.893Z,5.28
2023-05-08T16:51:25.164Z,5.57
2023-05-08T16:53:52.279Z,5.35
2023-05-08T16:56:19.405Z,4.53
2023-05-08T16:58:46.524Z,4.95
2023-05-08T17:01:14.259Z,4.95
2023-05-08T17:03:41.461Z,5.30
2023-05-08T17:06:08.809Z,5.13
2023-05-08T17:08:35.971Z,5.55
2023-05-08T17:11:03.292Z,5.63
2023-05-08T17:13:30.669Z,5.20
2023-05-08T17:15:58.640Z,5.50
2023-05-08T17:18:25.871Z,5.50
2023-05-08T17:20:53.104Z,5.40
2023-05-08T17:23:20.245Z,5.38
2023-05-08T17:25:47.376Z,5.20
2023-05-08T17:28:14.523Z,5.25
2023-05-08T17:30:41.652Z,5.30
2023-05-08T17:33:08.926Z,5.13
2023-05-08T17:35:36.219Z,5.47
2023-05-08T17:38:03.410Z,5.55
2023-05-08T17:40:31.671Z,5.30
2023-05-08T17:43:01.631Z,4.88
2023-05-08T17:45:28.854Z,5.35
2023-05-08T17:47:56.191Z,5.43
2023-05-08T17:50:23.356Z,5.60
2023-05-08T17:52:50.664Z,5.63
2023-05-08T17:55:17.840Z,5.47
2023-05-08T17:57:44.944Z,5.43
2023-05-08T18:00:12.602Z,4.75
2023-05-08T18:02:40.099Z,5.05
2023-05-08T18:05:07.435Z,5.13
2023-05-08T18:07:34.595Z,6.05
2023-05-08T18:10:01.767Z,5.38
2023-05-08T18:12:28.870Z,5.45
2023-05-08T18:14:56.062Z,4.28
2023-05-08T18:17:23.297Z,4.85
2023-05-08T18:19:50.548Z,5.57
2023-05-08T18:22:17.686Z,5.22
2023-05-08T18:24:45.690Z,5.13
2023-05-08T18:27:12.830Z,4.50
2023-05-08T18:29:40.047Z,5.32
2023-05-08T18:32:07.185Z,5.05
2023-05-08T18:34:34.343Z,5.00
2023-05-08T18:37:01.487Z,5.38
2023-05-08T18:39:28.687Z,5.38
2023-05-08T18:41:55.864Z,4.95
2023-05-08T18:44:23.003Z,4.78
2023-05-08T18:46:50.221Z,4.47
2023-05-08T18:49:17.428Z,4.90
2023-05-08T18:51:44.613Z,4.65
2023-05-08T18:54:11.812Z,4.80
2023-05-08T18:56:39.167Z,4.85
2023-05-08T18:59:06.338Z,5.07
2023-05-08T19:01:33.455Z,4.72
2023-05-08T19:04:00.900Z,4.97
2023-05-08T19:06:28.088Z,5.03
2023-05-08T19:08:55.306Z,5.70
2023-05-08T19:11:22.452Z,4.90
2023-05-08T19:13:51.771Z,5.18
2023-05-08T19:16:18.991Z,5.10
2023-05-08T19:18:46.153Z,4.95
2023-05-08T19:21:13.317Z,5.55
2023-05-08T19:23:40.495Z,5.00
2023-05-08T19:26:07.793Z,5.25
2023-05-08T19:28:35.168Z,5.10
2023-05-08T19:31:02.373Z,5.00
2023-05-08T19:33:29.501Z,5.50
2023-05-08T19:35:56.624Z,5.10
2023-05-08T19:38:24.107Z,6.20
2023-05-08T19:40:56.446Z,5.57
2023-05-08T19:43:24.639Z,7.60
2023-05-08T19:45:51.727Z,5.85
2023-05-08T19:48:20.097Z,6.93
2023-05-08T19:50:47.541Z,6.15
2023-05-08T19:53:14.706Z,5.97
2023-05-08T19:55:41.944Z,5.80
2023-05-08T19:58:09.164Z,5.35
2023-05-08T20:00:36.279Z,6.40
2023-05-08T20:03:03.529Z,5.30
2023-05-08T20:05:31.245Z,5.55
2023-05-08T20:07:58.390Z,6.18
2023-05-08T20:10:25.608Z,6.97
2023-05-08T20:12:52.849Z,5.55
2023-05-08T20:15:20.386Z,6.78
2023-05-08T20:17:47.549Z,5.05
2023-05-08T20:20:15.054Z,5.70
2023-05-08T20:22:42.333Z,5.70
2023-05-08T20:25:09.607Z,4.82
2023-05-08T20:27:36.752Z,5.32
2023-05-08T20:30:04.122Z,5.72
2023-05-08T20:32:31.393Z,5.85
2023-05-08T20:34:58.544Z,6.45
2023-05-08T20:37:25.697Z,5.60
2023-05-08T20:39:52.861Z,5.53
2023-05-08T20:42:19.989Z,5.45
2023-05-08T20:44:47.131Z,5.70
2023-05-08T20:47:14.256Z,6.03
2023-05-08T20:49:41.412Z,5.13
2023-05-08T20:52:08.530Z,5.55
2023-05-08T20:54:35.727Z,5.15
2023-05-08T20:57:02.894Z,5.07
2023-05-08T20:59:30.034Z,4.95
2023-05-08T21:01:57.239Z,4.63
2023-05-08T21:04:24.500Z,5.68
2023-05-08T21:06:52.267Z,5.38
2023-05-08T21:09:19.609Z,5.30
2023-05-08T21:11:46.730Z,5.60
2023-05-08T21:14:13.834Z,4.55
2023-05-08T21:16:41.296Z,5.07
2023-05-08T21:19:09.920Z,4.90
2023-05-08T21:21:37.131Z,5.78
2023-05-08T21:24:04.767Z,4.90
2023-05-08T21:26:31.884Z,4.80
2023-05-08T21:29:00.459Z,5.50
2023-05-08T21:31:28.832Z,4.57
2023-05-08T21:33:56.402Z,4.60
2023-05-08T21:36:23.608Z,5.00
2023-05-08T21:38:52.019Z,5.53
2023-05-08T21:41:19.166Z,5.50
2023-05-08T21:43:46.341Z,4.78
2023-05-08T21:46:13.528Z,4.60
2023-05-08T21:48:40.726Z,5.03
2023-05-08T21:51:07.819Z,5.32
2023-05-08T21:53:34.981Z,5.35
2023-05-08T21:56:02.120Z,4.95
2023-05-08T21:58:29.314Z,4.82
2023-05-08T22:00:58.407Z,4.82
2023-05-08T22:03:26.039Z,4.78
2023-05-08T22:05:55.311Z,4.80
2023-05-08T22:08:22.439Z,4.82
2023-05-08T22:10:49.586Z,5.10
2023-05-08T22:13:16.784Z,4.85
2023-05-08T22:15:43.932Z,4.43
2023-05-08T22:18:11.285Z,5.20
2023-05-08T22:20:38.458Z,4.85
2023-05-08T22:23:05.857Z,4.82
2023-05-08T22:25:33.294Z,5.00
2023-05-08T22:28:00.561Z,4.55
2023-05-08T22:30:27.814Z,4.70
2023-05-08T22:32:56.384Z,4.35
2023-05-08T22:35:24.508Z,4.97
2023-05-08T22:37:52.413Z,4.57
2023-05-08T22:40:19.808Z,4.55
2023-05-08T22:42:47.256Z,4.53
2023-05-08T22:45:15.004Z,4.40
2023-05-08T22:47:42.421Z,4.18
2023-05-08T22:50:09.912Z,4.00
2023-05-08T22:52:37.198Z,5.07
2023-05-08T22:55:04.805Z,4.47
2023-05-08T22:57:31.999Z,4.03
2023-05-08T22:59:59.191Z,4.53
2023-05-08T23:02:32.002Z,4.53
2023-05-08T23:04:59.167Z,4.38
2023-05-08T23:07:26.415Z,4.63
2023-05-08T23:09:53.490Z,4.35
2023-05-08T23:12:20.617Z,4.53
2023-05-08T23:14:47.754Z,4.65
2023-05-08T23:17:15.014Z,4.75
2023-05-08T23:19:43.032Z,4.03
2023-05-08T23:22:10.406Z,4.70
2023-05-08T23:24:37.549Z,4.18
2023-05-08T23:27:04.743Z,4.50
2023-05-08T23:29:31.823Z,4.00
2023-05-08T23:31:58.948Z,4.35
2023-05-08T23:34:26.228Z,4.20
2023-05-08T23:36:53.345Z,3.72
2023-05-08T23:39:20.452Z,4.13
2023-05-08T23:41:47.675Z,4.13
2023-05-08T23:44:15.357Z,4.43
2023-05-08T23:46:42.736Z,3.92
2023-05-08T23:49:09.924Z,4.38
2023-05-08T23:51:37.286Z,3.90
2023-05-08T23:54:04.960Z,4.20
2023-05-08T23:56:32.079Z,3.97
2023-05-08T23:58:59.212Z,4.20
